Daley Dijks

Olheiro-Chefe - Cambuur
2 Jul 2028
Domingo
Processo

Personalidade

Adaptabilidade (17) Ambição (8) Controvérsia (8) Lealdade (13) Pressão (5) Profissionalismo (2) Espírito Esportivo (12) Temperamento (14)

Perfil

Estilo de Treinamento Democrático
Licença Continental B
Determinação 4
Gestão de Pessoas 8
Motivação 9
Disciplina 5
Satisfação no Trabalho
100%
Fadiga
0%
Função Olheiro-Chefe
Salário 32.9K p/s
Contrato 14.03.2030

Desempenho

Comportamento Bom
Eficácia do Treinamento
21%
Desenvolvimento do Jogador
35%
Prevenção de Lesões
55%
Implementação Tática
20%

Eventos Recentes

Participou de uma reunião de recrutamento agora
Recomendou um alvo de transferência agora
Recomendou um alvo de transferência agora
Participou de uma reunião de recrutamento 7d atrás
Recomendou um alvo de transferência 7d atrás
Recomendou um alvo de transferência 7d atrás
Recomendou um alvo de transferência 7d atrás
Recomendou um alvo de transferência 7d atrás

Monitorando agora

66
Jogador Clube Status Habilidade Confiança Observado Última observação Último voto
Isaac Partey Sol de America Ativo 108 / 109 66% 1 01.01.2028 -
Samuel Asamoah Racing Ativo 104 / 110 66% 1 01.06.2027 Aprovar
Liel Abada Inter Miami CF Ativo 131 / 132 62% 1 01.06.2027 -
Max Svensson Corinthians Ativo 106 / 108 66% 1 01.01.2027 Aprovar
Pablo Fernández Leiria Ativo 110 / 110 67% 1 01.01.2027 Aprovar
Caio Vidal Deportivo Pereira Ativo 128 / 129 63% 1 01.01.2027 Aprovar
Carlos Vicente Birmingham Ativo 139 / 153 40% 2 29.12.2026 -
Enrique Lofolomo Zulte Waregem Ativo 111 / 102 40% 1 28.12.2026 -
Tyrhys Dolan Espanyol Ativo 124 / 147 40% 4 27.12.2026 -
Maksim Kireev KV Mechelen Ativo 108 / 135 40% 2 27.12.2026 -
Mardochée Nzita Charleroi Ativo 124 / 106 40% 2 26.12.2026 -
Tibe De Vlieger KAA Gent Ativo 108 / 117 40% 1 26.12.2026 -
Ilias Sebaoui Sint-Truiden Ativo 117 / 117 40% 3 23.12.2026 -
Taiga Hata Sint-Truiden Ativo 125 / 113 40% 2 23.12.2026 -
Bobby Clark Derby County Ativo 108 / 124 40% 1 19.12.2026 -
Juan Pablo Gallego Fehervar Ativo 112 / 123 40% 1 13.12.2026 -
Tyrese Campbell Sheffield United Ativo 143 / 128 40% 1 12.12.2026 -
Tristan Degreef Anderlecht Ativo 126 / 126 40% 6 11.12.2026 -
William Balikwisha OH Leuven Ativo 102 / 127 40% 2 11.12.2026 -
Marley Aké Zulte Waregem Ativo 120 / 129 40% 2 10.12.2026 -
Fredrik Hammar KV Mechelen Ativo 117 / 102 40% 1 10.12.2026 -
Eddie Nketiah Crystal Palace Ativo 143 / 137 40% 2 09.12.2026 -
Oswin Appollis Orlando Pirates Ativo 111 / 101 40% 1 09.12.2026 -
Tyler Goodrham Oxford United Ativo 133 / 124 40% 1 06.12.2026 -
Mitchel Bakker Modena Ativo 129 / 141 40% 4 04.12.2026 -
Daniel Kyerewaa Reading Ativo 128 / 122 40% 1 04.12.2026 -
Elliot Anderson Manchester City Ativo 142 / 157 40% 1 02.12.2026 -
Kyriani Sabbe Club Brugge Ativo 122 / 111 40% 2 30.11.2026 -
Yassine Khalifi Charleroi Ativo 108 / 116 40% 1 27.11.2026 -
Fiete Arp OB Ativo 140 / 133 40% 1 25.11.2026 -
Thomas Claes Zulte Waregem Ativo 105 / 118 40% 1 25.11.2026 -
Jorg Schreuders Groningen Ativo 120 / 137 40% 1 24.11.2026 -
Malick Mbaye Zulte Waregem Ativo 117 / 102 40% 3 15.11.2026 -
Thibaud Verlinden OH Leuven Ativo 124 / 127 40% 1 14.11.2026 -
Abdelkahar Kadri KAA Gent Ativo 112 / 123 40% 1 14.11.2026 -
Dylan Ourega Westerlo Ativo 116 / 129 40% 1 09.11.2026 -
Jadon Sancho Manchester United Ativo 162 / 135 40% 2 06.11.2026 -
Alex Luna Instituto Ativo 136 / 132 40% 1 05.11.2026 -
Tommy St. Jago KV Mechelen Ativo 123 / 113 40% 1 04.11.2026 -
Alejandro Piedrahita Deportivo Pereira Ativo 114 / 137 40% 1 04.11.2026 -
Jens Petter Hauge Bodo/Glimt Ativo 138 / 126 40% 1 03.11.2026 -
Adnane Abid Standard Liege Ativo 121 / 117 40% 1 02.11.2026 -
Scott Twine Bristol City Ativo 137 / 138 40% 1 02.11.2026 -
Nikolas Sattlberger Racing Genk Ativo 107 / 136 40% 1 31.10.2026 -
Timothy Tielemans Mouscron Ativo 111 / 113 40% 1 29.10.2026 -
Jan Virgili Club Brugge Ativo 123 / 130 40% 2 27.10.2026 -
Sylvester Jasper Standard Liege Ativo 103 / 126 40% 1 26.10.2026 -
Mohamed-Ali Cho Hull City Ativo 118 / 143 40% 1 21.10.2026 -
Jason Knight Bristol City Ativo 126 / 136 40% 1 21.10.2026 -
Dante Rigo Standard Liege Ativo 100 / 125 40% 1 20.10.2026 -
Łukasz Łakomy OH Leuven Ativo 116 / 108 40% 1 18.10.2026 -
Emi Rodriguez Leon Ativo 111 / 103 40% 1 18.10.2026 -
Martín Ojeda Orlando City Ativo 158 / 111 40% 1 14.10.2026 -
Pedro Vite Pumas UNAM Ativo 143 / 124 40% 1 14.10.2026 -
Talles Magno New York City Ativo 115 / 125 40% 1 13.10.2026 -
Marcus Edwards Burnley Ativo 150 / 140 40% 1 12.10.2026 -
Yaimar Medina Racing Genk Ativo 112 / 109 40% 1 11.10.2026 -
Omar Campos Cruz Azul Ativo 147 / 131 40% 1 10.10.2026 -
Antoine Colassin Charleroi Ativo 110 / 110 40% 1 09.10.2026 -
Sieben Dewaele Waasland-Beveren Ativo 100 / 104 40% 1 08.10.2026 -
John Mercado Sparta Prague Ativo 127 / 115 40% 1 08.10.2026 -
Hugo Vetlesen Club Brugge Ativo 125 / 134 40% 1 07.10.2026 -
Jearl Margaritha Waasland-Beveren Ativo 91 / 101 40% 1 07.10.2026 -
Ibrahim Karamoko Standard Liege Ativo 124 / 112 40% 1 06.10.2026 -
Matisse Samoise KAA Gent Ativo 109 / 106 40% 1 05.10.2026 -
Djordje Mihailović Toronto FC Ativo 146 / 149 40% 1 05.10.2026 -